createdAt,value
2019-05-01T00:00:36.901Z,43.20
2019-05-01T00:03:40.378Z,44.20
2019-05-01T00:06:26.012Z,47.10
2019-05-01T00:09:08.341Z,63.10
2019-05-01T00:11:47.239Z,48.30
2019-05-01T00:14:30.547Z,49.00
2019-05-01T00:17:21.886Z,56.20
2019-05-01T00:20:08.607Z,53.50
2019-05-01T00:22:53.222Z,53.97
2019-05-01T00:25:39.337Z,49.13
2019-05-01T00:28:24.335Z,54.20
2019-05-01T00:31:08.764Z,50.67
2019-05-01T00:33:52.215Z,58.30
2019-05-01T00:36:36.509Z,131.60
2019-05-01T00:39:19.005Z,147.17
2019-05-01T00:42:06.277Z,80.83
2019-05-01T00:44:52.242Z,46.77
2019-05-01T00:47:42.134Z,46.63
2019-05-01T00:50:24.231Z,41.73
2019-05-01T00:53:10.939Z,44.10
2019-05-01T00:56:09.765Z,46.63
2019-05-01T00:59:20.065Z,41.63
2019-05-01T01:02:35.000Z,41.43
2019-05-01T01:05:17.504Z,41.77
2019-05-01T01:08:01.705Z,46.10
2019-05-01T01:10:48.639Z,50.80
2019-05-01T01:13:31.266Z,47.50
2019-05-01T01:16:17.283Z,72.57
2019-05-01T01:19:02.783Z,118.70
2019-05-01T01:21:43.940Z,243.10
2019-05-01T01:24:28.629Z,123.50
2019-05-01T01:27:16.140Z,180.63
2019-05-01T01:29:59.570Z,61.97
2019-05-01T01:32:42.593Z,53.90
2019-05-01T01:35:26.477Z,52.13
2019-05-01T01:38:07.016Z,56.83
2019-05-01T01:41:01.963Z,51.27
2019-05-01T01:44:01.264Z,76.03
2019-05-01T01:46:42.885Z,66.53
2019-05-01T01:49:28.719Z,59.03
2019-05-01T01:52:23.380Z,76.82
2019-05-01T01:55:18.585Z,274.10
2019-05-01T01:58:06.529Z,145.57
2019-05-01T02:01:20.028Z,78.77
2019-05-01T02:04:13.718Z,61.70
2019-05-01T02:06:55.857Z,60.33
2019-05-01T02:09:37.568Z,59.17
2019-05-01T02:12:25.467Z,50.20
2019-05-01T02:15:09.093Z,66.87
2019-05-01T02:17:57.942Z,55.90
2019-05-01T02:20:41.016Z,61.95
2019-05-01T02:23:22.837Z,58.00
2019-05-01T02:26:12.197Z,62.97
2019-05-01T02:29:01.871Z,110.22
2019-05-01T02:31:49.746Z,53.67
2019-05-01T02:34:35.860Z,56.43
2019-05-01T02:37:25.853Z,53.70
2019-05-01T02:40:15.603Z,54.73
2019-05-01T02:43:01.303Z,48.03
2019-05-01T02:45:48.018Z,57.87
2019-05-01T02:48:29.821Z,61.80
2019-05-01T02:51:16.867Z,51.97
2019-05-01T02:54:03.449Z,47.40
2019-05-01T02:57:17.646Z,50.67
2019-05-01T03:00:06.378Z,46.43
2019-05-01T03:02:48.812Z,45.10
2019-05-01T03:05:42.653Z,50.30
2019-05-01T03:08:22.667Z,40.83
2019-05-01T03:11:06.993Z,43.53
2019-05-01T03:13:52.339Z,43.67
2019-05-01T03:16:38.298Z,43.63
2019-05-01T03:19:46.597Z,38.93
2019-05-01T03:22:49.463Z,43.50
2019-05-01T03:25:37.433Z,44.17
2019-05-01T03:28:25.090Z,34.20
2019-05-01T03:31:09.504Z,37.57
2019-05-01T03:33:51.840Z,42.50
2019-05-01T03:36:46.114Z,38.67
2019-05-01T03:39:49.503Z,96.42
2019-05-01T03:42:33.921Z,57.30
2019-05-01T03:45:15.254Z,48.07
2019-05-01T03:47:55.790Z,118.70
2019-05-01T03:50:40.884Z,50.80
2019-05-01T03:53:33.041Z,72.00
2019-05-01T03:56:17.931Z,54.00
2019-05-01T03:59:01.541Z,59.63
2019-05-01T04:02:00.861Z,48.70
2019-05-01T04:04:46.442Z,63.68
2019-05-01T04:07:36.483Z,49.13
2019-05-01T04:10:20.416Z,51.33
2019-05-01T04:13:11.479Z,43.50
2019-05-01T04:16:04.149Z,57.70
2019-05-01T04:18:51.404Z,50.83
2019-05-01T04:21:40.037Z,72.97
2019-05-01T04:24:27.450Z,65.13
2019-05-01T04:27:15.649Z,76.73
2019-05-01T04:30:19.382Z,88.27
2019-05-01T04:33:10.984Z,99.87
2019-05-01T04:40:08.863Z,139.37
2019-05-01T04:43:21.915Z,110.67
2019-05-01T04:53:41.046Z,155.10
2019-05-01T05:00:05.197Z,153.67
2019-05-01T05:03:28.163Z,157.23
2019-05-01T05:11:00.225Z,95.43
2019-05-01T05:13:34.366Z,173.73
2019-05-01T05:16:44.211Z,138.50
2019-05-01T05:20:27.818Z,102.10
2019-05-01T05:23:16.513Z,152.90
2019-05-01T05:26:17.353Z,136.05
2019-05-01T05:29:40.021Z,100.90
2019-05-01T05:32:49.394Z,94.20
2019-05-01T05:39:30.074Z,83.87
2019-05-01T05:42:43.040Z,92.80
2019-05-01T05:45:32.403Z,76.43
2019-05-01T05:55:21.445Z,89.87
2019-05-01T06:02:09.248Z,153.80
2019-05-01T06:06:08.820Z,106.20
2019-05-01T06:08:43.701Z,83.80
2019-05-01T06:12:14.817Z,80.23
2019-05-01T06:18:53.589Z,71.07
2019-05-01T06:23:35.671Z,72.13
2019-05-01T06:25:34.346Z,84.58
2019-05-01T06:36:14.360Z,80.33
2019-05-01T06:39:06.873Z,77.57
2019-05-01T06:42:29.439Z,89.07
2019-05-01T06:56:42.236Z,73.50
2019-05-01T07:10:29.765Z,75.40
2019-05-01T07:13:50.731Z,64.07
2019-05-01T07:20:51.396Z,79.87
2019-05-01T07:27:23.914Z,65.13
2019-05-01T07:30:54.956Z,70.33
2019-05-01T07:34:21.614Z,71.00
2019-05-01T07:37:37.371Z,65.40
2019-05-01T07:41:05.126Z,71.93
2019-05-01T07:44:29.963Z,75.57
2019-05-01T07:48:06.924Z,69.23
2019-05-01T07:51:37.752Z,77.90
2019-05-01T07:55:02.132Z,69.20
2019-05-01T07:57:51.273Z,76.70
2019-05-01T08:00:59.911Z,73.13
2019-05-01T08:03:52.226Z,64.33
2019-05-01T08:07:12.940Z,67.00
2019-05-01T08:13:38.612Z,70.20
2019-05-01T08:20:14.815Z,66.60
2019-05-01T08:23:17.116Z,70.07
2019-05-01T08:26:48.775Z,62.10
2019-05-01T08:33:44.856Z,67.17
2019-05-01T08:44:09.143Z,54.30
2019-05-01T08:47:27.696Z,53.10
2019-05-01T08:50:59.214Z,58.78
2019-05-01T08:53:25.140Z,76.80
2019-05-01T08:56:58.233Z,276.93
2019-05-01T09:00:16.087Z,344.33
2019-05-01T09:05:01.028Z,260.37
2019-05-01T09:07:28.672Z,91.13
2019-05-01T09:20:39.171Z,63.15
2019-05-01T09:24:01.535Z,60.17
2019-05-01T09:31:45.346Z,71.60
2019-05-01T09:37:41.384Z,67.03
2019-05-01T09:51:06.739Z,79.63
2019-05-01T09:54:56.415Z,74.83
2019-05-01T09:58:17.457Z,78.30
2019-05-01T10:04:57.535Z,95.00
2019-05-01T10:08:04.060Z,67.00
2019-05-01T10:11:26.597Z,68.57
2019-05-01T10:14:58.734Z,78.52
2019-05-01T10:18:32.384Z,90.73
2019-05-01T10:24:59.670Z,101.27
2019-05-01T10:28:17.795Z,159.07
2019-05-01T10:31:42.888Z,126.43
2019-05-01T10:34:48.865Z,95.40
2019-05-01T10:41:41.222Z,98.00
2019-05-01T10:52:14.041Z,130.45
2019-05-01T11:03:27.429Z,105.90
2019-05-01T11:06:44.220Z,105.83
2019-05-01T11:13:01.040Z,100.37
2019-05-01T11:16:39.991Z,102.95
2019-05-01T11:30:38.290Z,101.50
2019-05-01T11:34:10.932Z,91.20
2019-05-01T11:41:10.781Z,90.83
2019-05-01T11:44:20.402Z,97.47
2019-05-01T11:51:17.930Z,94.40
2019-05-01T11:54:50.642Z,119.03
2019-05-01T11:58:08.381Z,120.40
2019-05-01T12:05:14.121Z,136.60
2019-05-01T12:08:56.382Z,114.67
2019-05-01T12:22:15.658Z,100.23
2019-05-01T12:25:54.048Z,110.08
2019-05-01T12:29:26.016Z,97.17
2019-05-01T12:32:39.875Z,97.50
2019-05-01T12:36:10.046Z,101.90
2019-05-01T12:47:07.667Z,190.70
2019-05-01T12:57:47.134Z,78.17
2019-05-01T13:04:58.995Z,61.30
2019-05-01T13:08:06.946Z,63.13
2019-05-01T13:18:46.901Z,66.63
2019-05-01T13:21:55.864Z,49.90
2019-05-01T13:25:36.391Z,49.23
2019-05-01T13:32:50.563Z,44.60
2019-05-01T14:01:06.195Z,43.45
2019-05-01T14:12:03.507Z,36.27
2019-05-01T14:15:11.049Z,37.57
2019-05-01T14:18:16.748Z,37.33
2019-05-01T14:22:03.685Z,38.43
2019-05-01T14:28:48.745Z,32.03
2019-05-01T14:32:24.631Z,29.87
2019-05-01T14:39:14.057Z,33.40
2019-05-01T14:52:32.215Z,33.00
2019-05-01T14:56:15.873Z,36.23
2019-05-01T15:10:57.928Z,31.40
2019-05-01T15:18:44.383Z,85.27
2019-05-01T15:24:56.041Z,35.83
2019-05-01T15:31:48.295Z,31.23
2019-05-01T15:42:09.552Z,39.97
2019-05-01T15:49:01.355Z,40.83
2019-05-01T15:52:42.152Z,30.50
2019-05-01T15:55:59.484Z,31.07
2019-05-01T16:02:38.595Z,144.87
2019-05-01T16:06:15.222Z,96.63
2019-05-01T16:09:20.572Z,37.17
2019-05-01T16:16:09.077Z,38.23
2019-05-01T16:23:08.348Z,39.83
2019-05-01T16:26:23.945Z,31.43
2019-05-01T16:29:45.979Z,33.87
2019-05-01T16:32:46.663Z,32.47
2019-05-01T16:35:32.078Z,35.07
2019-05-01T16:38:22.417Z,39.40
2019-05-01T16:44:24.309Z,36.70
2019-05-01T16:47:33.718Z,30.53
2019-05-01T16:51:02.932Z,36.37
2019-05-01T16:53:56.114Z,36.30
2019-05-01T16:56:54.343Z,41.43
2019-05-01T17:03:33.625Z,45.00
2019-05-01T17:07:06.183Z,40.57
2019-05-01T17:10:30.187Z,39.53
2019-05-01T17:13:36.147Z,38.90
2019-05-01T17:16:42.960Z,39.17
2019-05-01T17:19:24.338Z,41.37
2019-05-01T17:22:16.722Z,37.33
2019-05-01T17:25:15.521Z,35.37
2019-05-01T17:28:28.189Z,36.60
2019-05-01T17:31:20.795Z,43.23
2019-05-01T17:34:12.631Z,40.43
2019-05-01T17:37:07.931Z,43.50
2019-05-01T17:40:18.833Z,48.90
2019-05-01T17:43:13.544Z,109.90
2019-05-01T17:46:29.932Z,97.57
2019-05-01T17:49:25.151Z,45.17
2019-05-01T17:52:12.035Z,43.63
2019-05-01T17:55:18.328Z,38.27
2019-05-01T17:58:18.361Z,42.87
2019-05-01T18:01:50.795Z,38.77
2019-05-01T18:04:58.945Z,40.03
2019-05-01T18:07:47.421Z,40.20
2019-05-01T18:13:44.743Z,40.50
2019-05-01T18:16:42.097Z,34.80
2019-05-01T18:19:25.554Z,41.63
2019-05-01T18:22:37.155Z,36.20
2019-05-01T18:25:41.741Z,38.20
2019-05-01T18:29:05.825Z,35.37
2019-05-01T18:31:52.279Z,39.20
2019-05-01T18:34:44.367Z,40.67
2019-05-01T18:37:39.166Z,40.20
2019-05-01T18:40:47.392Z,41.37
2019-05-01T18:43:32.271Z,35.93
2019-05-01T18:46:16.853Z,42.70
2019-05-01T18:49:09.115Z,40.43
2019-05-01T18:51:53.872Z,43.37
2019-05-01T18:54:34.991Z,37.07
2019-05-01T18:57:23.130Z,40.70
2019-05-01T19:00:04.755Z,39.33
2019-05-01T19:02:48.243Z,42.40
2019-05-01T19:05:35.977Z,41.30
2019-05-01T19:08:28.885Z,41.37
2019-05-01T19:11:13.091Z,44.30
2019-05-01T19:13:55.566Z,42.37
2019-05-01T19:16:45.382Z,42.53
2019-05-01T19:19:26.072Z,46.30
2019-05-01T19:22:12.772Z,44.10
2019-05-01T19:24:57.240Z,51.85
2019-05-01T19:27:45.949Z,47.47
2019-05-01T19:30:38.401Z,53.17
2019-05-01T19:33:24.535Z,45.73
2019-05-01T19:36:08.220Z,47.80
2019-05-01T19:38:54.670Z,48.23
2019-05-01T19:41:43.463Z,42.43
2019-05-01T19:44:22.386Z,51.90
2019-05-01T19:47:07.958Z,52.33
2019-05-01T19:49:55.396Z,50.97
2019-05-01T19:52:40.743Z,48.33
2019-05-01T19:55:19.352Z,49.87
2019-05-01T19:57:58.272Z,54.30
2019-05-01T20:01:00.072Z,53.60
2019-05-01T20:03:41.642Z,54.33
2019-05-01T20:06:23.517Z,52.43
2019-05-01T20:09:04.336Z,47.90
2019-05-01T20:11:45.657Z,45.03
2019-05-01T20:14:26.433Z,54.33
2019-05-01T20:17:10.125Z,51.93
2019-05-01T20:19:51.456Z,52.03
2019-05-01T20:22:35.802Z,56.63
2019-05-01T20:25:19.499Z,53.00
2019-05-01T20:28:00.491Z,56.13
2019-05-01T20:30:42.845Z,53.93
2019-05-01T20:33:25.961Z,56.03
2019-05-01T20:36:11.644Z,49.23
2019-05-01T20:38:51.545Z,55.83
2019-05-01T20:41:34.550Z,51.73
2019-05-01T20:44:23.283Z,47.30
2019-05-01T20:47:02.432Z,48.60
2019-05-01T20:49:43.097Z,46.83
2019-05-01T20:52:24.151Z,49.37
2019-05-01T20:55:15.751Z,50.47
2019-05-01T20:58:19.150Z,42.60
2019-05-01T21:01:05.992Z,48.87
2019-05-01T21:03:52.534Z,50.75
2019-05-01T21:06:34.260Z,53.30
2019-05-01T21:09:19.927Z,55.67
2019-05-01T21:12:05.468Z,49.57
2019-05-01T21:14:45.338Z,54.77
2019-05-01T21:17:27.888Z,56.20
2019-05-01T21:23:23.386Z,53.57
2019-05-01T21:26:05.294Z,59.27
2019-05-01T21:28:45.316Z,57.40
2019-05-01T21:31:24.102Z,62.17
2019-05-01T21:34:04.250Z,54.87
2019-05-01T21:36:56.111Z,63.77
2019-05-01T21:39:37.974Z,58.47
2019-05-01T21:42:17.188Z,55.93
2019-05-01T21:44:59.733Z,59.95
2019-05-01T21:47:45.408Z,57.23
2019-05-01T21:50:26.554Z,57.30
2019-05-01T21:53:25.000Z,62.13
2019-05-01T21:56:02.167Z,61.23
2019-05-01T21:58:59.407Z,58.20
2019-05-01T22:01:41.123Z,60.70
2019-05-01T22:04:31.937Z,59.80
2019-05-01T22:07:17.581Z,56.70
2019-05-01T22:10:04.443Z,53.27
2019-05-01T22:12:49.062Z,61.23
2019-05-01T22:15:48.898Z,63.13
2019-05-01T22:25:38.115Z,60.80
2019-05-01T22:28:50.269Z,59.03
2019-05-01T22:31:52.912Z,52.07
2019-05-01T22:34:59.839Z,57.33
2019-05-01T22:37:59.200Z,55.00
2019-05-01T22:41:07.310Z,61.53
2019-05-01T22:43:53.251Z,55.43
2019-05-01T22:46:33.878Z,53.90
2019-05-01T22:49:29.820Z,53.17
2019-05-01T22:52:15.138Z,51.90
2019-05-01T22:55:08.775Z,52.70
2019-05-01T22:58:16.275Z,49.57
2019-05-01T23:01:19.973Z,49.03
2019-05-01T23:04:17.558Z,49.47
2019-05-01T23:07:16.819Z,49.90
2019-05-01T23:10:04.610Z,53.70
2019-05-01T23:13:13.949Z,51.00
2019-05-01T23:16:11.907Z,47.47
2019-05-01T23:21:52.673Z,47.43
2019-05-01T23:24:36.810Z,56.00
2019-05-01T23:27:53.723Z,43.47
2019-05-01T23:31:05.394Z,46.50
2019-05-01T23:34:02.623Z,48.37
2019-05-01T23:37:08.741Z,50.93
2019-05-01T23:40:03.926Z,42.80
2019-05-01T23:43:09.323Z,46.73
2019-05-01T23:46:43.063Z,45.03
2019-05-01T23:49:28.223Z,41.60
2019-05-01T23:52:45.137Z,48.23
2019-05-01T23:55:35.302Z,44.60
2019-05-01T23:58:20.124Z,46.63
